createdAt,value
2022-11-23T00:00:41.623Z,71.33
2022-11-23T00:03:15.907Z,71.81
2022-11-23T00:05:43.743Z,71.47
2022-11-23T00:08:12.807Z,71.99
2022-11-23T00:10:40.527Z,71.76
2022-11-23T00:13:08.098Z,71.86
2022-11-23T00:15:35.973Z,72.09
2022-11-23T00:18:03.680Z,72.17
2022-11-23T00:20:31.221Z,72.14
2022-11-23T00:22:58.821Z,72.26
2022-11-23T00:25:28.280Z,72.34
2022-11-23T00:27:56.135Z,72.55
2022-11-23T00:30:23.839Z,72.35
2022-11-23T00:32:51.437Z,72.44
2022-11-23T00:35:18.978Z,72.47
2022-11-23T00:37:46.555Z,72.63
2022-11-23T00:40:14.422Z,72.58
2022-11-23T00:42:43.837Z,72.56
2022-11-23T00:45:11.871Z,72.66
2022-11-23T00:47:39.532Z,72.66
2022-11-23T00:50:07.669Z,72.69
2022-11-23T00:52:35.267Z,72.70
2022-11-23T00:55:02.868Z,72.58
2022-11-23T00:57:30.548Z,72.78
2022-11-23T00:59:59.686Z,72.90
2022-11-23T01:02:27.261Z,72.90
2022-11-23T01:04:54.793Z,72.68
2022-11-23T01:07:22.427Z,72.83
2022-11-23T01:09:50.444Z,72.75
2022-11-23T01:12:18.195Z,72.38
2022-11-23T01:14:45.879Z,72.42
2022-11-23T01:17:14.787Z,72.79
2022-11-23T01:19:42.341Z,72.34
2022-11-23T01:22:09.911Z,72.51
2022-11-23T01:24:37.662Z,72.92
2022-11-23T01:27:05.332Z,72.81
2022-11-23T01:29:33.398Z,72.54
2022-11-23T01:32:01.594Z,72.77
2022-11-23T01:34:30.615Z,73.04
2022-11-23T01:36:58.214Z,72.91
2022-11-23T01:39:25.817Z,72.92
2022-11-23T01:41:53.380Z,73.09
2022-11-23T01:44:29.749Z,73.17
2022-11-23T01:46:59.692Z,73.40
2022-11-23T01:49:33.261Z,73.50
2022-11-23T01:52:05.225Z,73.04
2022-11-23T01:54:37.714Z,73.07
2022-11-23T01:57:10.112Z,73.33
2022-11-23T01:59:37.996Z,72.66
2022-11-23T02:02:06.403Z,72.83
2022-11-23T02:04:40.267Z,72.96
2022-11-23T02:07:08.243Z,72.95
2022-11-23T02:09:36.911Z,73.45
2022-11-23T02:12:08.103Z,73.48
2022-11-23T02:14:35.650Z,73.04
2022-11-23T02:17:03.323Z,73.22
2022-11-23T02:19:43.347Z,73.56
2022-11-23T02:22:17.032Z,73.63
2022-11-23T02:24:50.781Z,73.42
2022-11-23T02:27:20.810Z,73.40
2022-11-23T02:29:50.090Z,73.13
2022-11-23T02:32:23.041Z,73.38
2022-11-23T02:34:50.794Z,73.25
2022-11-23T02:37:19.457Z,73.55
2022-11-23T02:39:49.380Z,73.61
2022-11-23T02:42:17.007Z,73.25
2022-11-23T02:44:54.778Z,73.49
2022-11-23T02:47:22.559Z,73.22
2022-11-23T02:49:50.596Z,73.50
2022-11-23T02:52:18.859Z,73.55
2022-11-23T02:54:46.588Z,73.35
2022-11-23T02:57:14.555Z,73.24
2022-11-23T02:59:42.423Z,73.21
2022-11-23T03:02:11.535Z,73.39
2022-11-23T03:04:39.144Z,73.29
2022-11-23T03:07:06.806Z,73.71
2022-11-23T03:09:34.885Z,73.50
2022-11-23T03:12:02.641Z,73.74
2022-11-23T03:14:30.290Z,74.03
2022-11-23T03:16:57.835Z,73.66
2022-11-23T03:19:26.740Z,73.85
2022-11-23T03:21:54.268Z,74.03
2022-11-23T03:24:21.845Z,73.87
2022-11-23T03:26:49.678Z,73.78
2022-11-23T03:29:17.282Z,73.95
2022-11-23T03:31:44.916Z,73.53
2022-11-23T03:34:12.594Z,73.67
2022-11-23T03:36:41.618Z,73.85
2022-11-23T03:39:09.489Z,73.56
2022-11-23T03:41:37.108Z,73.61
2022-11-23T03:44:05.056Z,73.37
2022-11-23T03:46:32.799Z,73.42
2022-11-23T03:49:00.475Z,73.33
2022-11-23T03:51:28.473Z,73.07
2022-11-23T03:53:58.094Z,73.40
2022-11-23T03:56:25.905Z,73.61
2022-11-23T03:58:55.096Z,73.56
2022-11-23T04:01:22.655Z,73.15
2022-11-23T04:03:50.241Z,73.78
2022-11-23T04:06:17.863Z,73.75
2022-11-23T04:08:45.414Z,73.74
2022-11-23T04:11:14.471Z,73.77
2022-11-23T04:13:41.981Z,73.68
2022-11-23T04:16:09.499Z,73.98
2022-11-23T04:18:37.027Z,73.73
2022-11-23T04:21:04.748Z,73.86
2022-11-23T04:23:32.268Z,73.60
2022-11-23T04:25:59.789Z,73.81
2022-11-23T04:28:28.664Z,74.17
2022-11-23T04:30:58.698Z,74.05
2022-11-23T04:33:26.649Z,74.27
2022-11-23T04:35:54.208Z,74.11
2022-11-23T04:38:21.747Z,74.31
2022-11-23T04:40:49.650Z,74.21
2022-11-23T04:43:17.318Z,74.02
2022-11-23T04:45:46.493Z,73.74
2022-11-23T04:48:14.059Z,73.91
2022-11-23T04:50:43.790Z,74.07
2022-11-23T04:53:14.097Z,74.17
2022-11-23T04:55:41.631Z,73.96
2022-11-23T04:58:09.274Z,73.87
2022-11-23T05:00:36.819Z,73.70
2022-11-23T05:03:05.749Z,74.22
2022-11-23T05:05:33.343Z,74.09
2022-11-23T05:08:00.891Z,74.05
2022-11-23T05:10:28.460Z,73.91
2022-11-23T05:12:55.986Z,73.90
2022-11-23T05:15:23.583Z,74.23
2022-11-23T05:17:55.163Z,73.88
2022-11-23T05:20:26.691Z,73.40
2022-11-23T05:22:54.242Z,73.34
2022-11-23T05:25:21.926Z,73.23
2022-11-23T05:27:49.599Z,73.69
2022-11-23T05:30:17.184Z,73.48
2022-11-23T05:32:44.953Z,73.66
2022-11-23T05:35:12.639Z,73.11
2022-11-23T05:37:42.332Z,73.21
2022-11-23T05:40:10.987Z,73.31
2022-11-23T05:42:38.517Z,73.01
2022-11-23T05:45:11.359Z,73.15
2022-11-23T05:47:39.366Z,73.18
2022-11-23T05:50:08.044Z,72.82
2022-11-23T05:52:35.610Z,72.95
2022-11-23T05:55:05.094Z,72.99
2022-11-23T05:57:32.592Z,72.94
2022-11-23T06:00:00.158Z,72.88
2022-11-23T06:02:27.706Z,72.47
2022-11-23T06:04:55.276Z,72.73
2022-11-23T06:07:23.032Z,72.76
2022-11-23T06:09:50.784Z,72.76
2022-11-23T06:12:20.260Z,72.95
2022-11-23T06:14:48.196Z,73.08
2022-11-23T06:17:16.378Z,72.61
2022-11-23T06:19:53.045Z,73.09
2022-11-23T06:22:41.133Z,72.90
2022-11-23T06:25:09.483Z,73.21
2022-11-23T06:27:38.709Z,72.99
2022-11-23T06:30:07.902Z,73.38
2022-11-23T06:32:36.361Z,72.79
2022-11-23T06:35:04.838Z,73.18
2022-11-23T06:37:33.604Z,73.34
2022-11-23T06:40:04.600Z,73.22
2022-11-23T06:42:56.341Z,73.35
2022-11-23T06:45:23.891Z,73.08
2022-11-23T06:53:15.009Z,73.08
2022-11-23T06:55:42.976Z,73.35
2022-11-23T06:58:12.730Z,73.66
2022-11-23T07:00:40.290Z,73.14
2022-11-23T07:03:08.298Z,73.46
2022-11-23T07:05:36.017Z,73.21
2022-11-23T07:08:03.723Z,73.26
2022-11-23T07:10:32.853Z,73.33
2022-11-23T07:13:06.005Z,73.09
2022-11-23T07:15:35.318Z,72.85
2022-11-23T07:18:02.877Z,73.09
2022-11-23T07:20:30.436Z,72.72
2022-11-23T07:23:01.680Z,72.91
2022-11-23T07:25:29.364Z,73.22
2022-11-23T07:27:57.601Z,73.54
2022-11-23T07:30:29.301Z,72.90
2022-11-23T07:33:02.052Z,73.00
2022-11-23T07:35:30.333Z,72.92
2022-11-23T07:37:58.086Z,72.61
2022-11-23T07:40:26.380Z,72.71
2022-11-23T07:42:54.184Z,72.70
2022-11-23T07:45:22.970Z,72.76
2022-11-23T07:47:59.148Z,72.66
2022-11-23T07:50:28.824Z,72.52
2022-11-23T07:52:56.688Z,72.47
2022-11-23T07:55:24.601Z,72.30
2022-11-23T07:57:55.698Z,72.13
2022-11-23T08:00:24.129Z,72.38
2022-11-23T08:03:25.778Z,71.92
2022-11-23T08:05:42.571Z,72.00
2022-11-23T08:08:10.222Z,72.22
2022-11-23T08:10:44.182Z,71.60
2022-11-23T08:13:12.805Z,71.34
2022-11-23T08:15:40.426Z,71.67
2022-11-23T08:18:08.056Z,71.58
2022-11-23T08:20:35.683Z,71.53
2022-11-23T08:23:04.574Z,71.85
2022-11-23T08:25:32.183Z,71.38
2022-11-23T08:28:01.005Z,71.11
2022-11-23T08:30:30.211Z,71.46
2022-11-23T08:32:57.851Z,71.03
2022-11-23T08:35:25.844Z,70.62
2022-11-23T08:37:53.556Z,70.89
2022-11-23T08:40:41.851Z,71.35
2022-11-23T08:43:09.950Z,71.21
2022-11-23T08:45:37.505Z,70.98
2022-11-23T08:48:06.758Z,70.90
2022-11-23T08:50:37.354Z,70.87
2022-11-23T08:53:20.832Z,70.46
2022-11-23T08:55:50.054Z,70.42
2022-11-23T08:58:18.023Z,70.36
2022-11-23T09:00:45.970Z,70.80
2022-11-23T09:03:14.079Z,70.29
2022-11-23T09:05:41.616Z,70.11
2022-11-23T09:08:09.951Z,69.66
2022-11-23T09:10:38.191Z,69.50
2022-11-23T09:13:07.542Z,69.50
2022-11-23T09:15:36.196Z,69.22
2022-11-23T09:18:04.208Z,68.93
2022-11-23T09:20:35.123Z,68.74
2022-11-23T09:23:03.665Z,69.05
2022-11-23T09:25:32.480Z,68.51
2022-11-23T09:28:01.167Z,67.93
2022-11-23T09:30:30.889Z,67.66
2022-11-23T09:32:59.070Z,67.39
2022-11-23T09:35:27.701Z,67.41
2022-11-23T09:37:58.813Z,66.89
2022-11-23T09:40:31.321Z,67.08
2022-11-23T09:43:18.235Z,66.13
2022-11-23T09:45:50.242Z,66.00
2022-11-23T09:48:41.849Z,66.01
2022-11-23T09:51:16.845Z,65.00
2022-11-23T09:53:49.348Z,64.43
2022-11-23T09:56:19.980Z,64.44
2022-11-23T09:58:48.157Z,63.46
2022-11-23T10:01:17.630Z,62.23
2022-11-23T10:03:49.088Z,61.73
2022-11-23T10:06:25.879Z,60.10
2022-11-23T10:09:18.834Z,58.75
2022-11-23T10:12:23.907Z,57.91
2022-11-23T10:15:17.386Z,58.29
2022-11-23T10:18:06.584Z,56.80
2022-11-23T10:20:55.560Z,55.88
2022-11-23T10:23:40.910Z,54.43
2022-11-23T10:26:14.340Z,54.46
2022-11-23T10:28:43.025Z,54.38
2022-11-23T10:31:18.660Z,52.95
2022-11-23T10:33:59.539Z,51.38
2022-11-23T10:36:27.647Z,52.46
2022-11-23T10:39:01.432Z,50.24
2022-11-23T10:41:37.819Z,50.39
2022-11-23T10:44:21.608Z,49.86
2022-11-23T10:46:49.464Z,49.56
2022-11-23T10:49:24.711Z,48.42
2022-11-23T10:51:59.069Z,48.77
2022-11-23T10:54:33.933Z,48.18
2022-11-23T10:57:08.006Z,47.94
2022-11-23T10:59:47.368Z,48.17
2022-11-23T11:02:23.603Z,47.48
2022-11-23T11:05:19.627Z,45.78
2022-11-23T11:07:48.038Z,46.18
2022-11-23T11:13:26.148Z,45.32
2022-11-23T11:16:01.738Z,45.55
2022-11-23T11:18:31.975Z,44.73
2022-11-23T11:21:08.909Z,43.36
2022-11-23T11:23:41.589Z,42.61
2022-11-23T11:28:55.604Z,43.33
2022-11-23T11:34:53.301Z,41.24
2022-11-23T11:37:31.708Z,41.81
2022-11-23T11:40:14.645Z,42.08
2022-11-23T11:42:54.150Z,40.88
2022-11-23T11:45:28.887Z,39.98
2022-11-23T11:48:06.254Z,41.02
2022-11-23T11:50:40.071Z,38.42
2022-11-23T11:53:14.964Z,37.08
2022-11-23T11:55:52.306Z,37.48
2022-11-23T11:58:23.794Z,37.91
2022-11-23T12:00:54.453Z,37.63
2022-11-23T12:03:40.246Z,38.14
2022-11-23T12:06:15.514Z,36.51
2022-11-23T12:08:53.349Z,35.60
2022-11-23T12:11:37.977Z,36.03
2022-11-23T12:14:09.384Z,38.18
2022-11-23T12:16:45.546Z,35.72
2022-11-23T12:19:21.037Z,35.28
2022-11-23T12:22:15.583Z,35.26
2022-11-23T12:25:00.219Z,38.56
2022-11-23T12:27:43.453Z,37.64
2022-11-23T12:30:23.241Z,41.81
2022-11-23T12:33:17.358Z,37.62
2022-11-23T12:35:56.965Z,37.45
2022-11-23T12:38:34.976Z,40.93
2022-11-23T12:41:24.097Z,40.84
2022-11-23T12:44:11.057Z,38.37
2022-11-23T12:46:47.070Z,40.29
2022-11-23T12:49:28.033Z,38.60
2022-11-23T12:52:06.488Z,39.46
2022-11-23T12:54:46.719Z,41.93
2022-11-23T12:57:22.118Z,39.72
2022-11-23T12:59:55.644Z,39.94
2022-11-23T13:02:48.559Z,42.65
2022-11-23T13:05:48.191Z,41.41
2022-11-23T13:08:51.441Z,40.73
2022-11-23T13:11:25.830Z,41.56
2022-11-23T13:14:08.801Z,40.25
2022-11-23T13:16:54.968Z,45.12
2022-11-23T13:19:37.468Z,44.27
2022-11-23T13:22:09.498Z,43.09
2022-11-23T13:24:42.280Z,41.33
2022-11-23T13:27:41.727Z,38.69
2022-11-23T13:30:24.441Z,39.31
2022-11-23T13:33:00.145Z,39.09
2022-11-23T13:39:01.856Z,40.29
2022-11-23T13:57:14.588Z,40.86
2022-11-23T14:16:30.172Z,44.32
2022-11-23T14:19:22.921Z,42.90
2022-11-23T14:22:15.491Z,43.49
2022-11-23T14:25:28.016Z,42.39
2022-11-23T14:33:28.989Z,44.52
2022-11-23T14:36:08.608Z,43.43
2022-11-23T14:39:01.711Z,46.02
2022-11-23T14:41:35.094Z,45.12
2022-11-23T14:44:05.936Z,46.77
2022-11-23T14:46:38.801Z,45.42
2022-11-23T14:49:14.679Z,45.56
2022-11-23T14:51:49.660Z,45.11
2022-11-23T14:54:22.756Z,45.59
2022-11-23T14:56:55.622Z,46.76
2022-11-23T14:59:28.174Z,46.65
2022-11-23T15:01:59.860Z,47.46
2022-11-23T15:04:41.893Z,48.49
2022-11-23T15:07:17.558Z,48.58
2022-11-23T15:09:57.675Z,48.69
2022-11-23T15:12:42.777Z,49.45
2022-11-23T15:15:26.385Z,50.11
2022-11-23T15:18:00.214Z,48.66
2022-11-23T15:20:32.869Z,48.48
2022-11-23T15:23:20.471Z,50.81
2022-11-23T15:25:57.313Z,49.57
2022-11-23T15:28:33.277Z,49.29
2022-11-23T15:31:03.818Z,50.50
2022-11-23T15:33:36.997Z,50.06
2022-11-23T15:36:14.150Z,50.08
2022-11-23T15:38:44.551Z,50.22
2022-11-23T15:41:28.641Z,51.10
2022-11-23T15:44:12.229Z,51.11
2022-11-23T15:46:43.889Z,50.97
2022-11-23T15:49:25.545Z,51.04
2022-11-23T15:52:08.666Z,51.21
2022-11-23T15:57:36.455Z,51.73
2022-11-23T16:00:26.100Z,52.05
2022-11-23T16:02:54.383Z,52.21
2022-11-23T16:05:23.630Z,52.97
2022-11-23T16:07:54.420Z,52.94
2022-11-23T16:10:24.494Z,53.12
2022-11-23T16:12:58.361Z,53.36
2022-11-23T16:15:46.640Z,53.82
2022-11-23T16:18:25.495Z,54.13
2022-11-23T16:20:57.752Z,53.77
2022-11-23T16:23:29.504Z,55.22
2022-11-23T16:26:01.801Z,54.55
2022-11-23T16:28:33.305Z,54.64
2022-11-23T16:31:04.266Z,54.71
2022-11-23T16:33:33.164Z,54.79
2022-11-23T16:36:02.100Z,54.76
2022-11-23T16:38:32.581Z,54.80
2022-11-23T16:41:01.356Z,54.96
2022-11-23T16:43:29.723Z,54.99
2022-11-23T16:45:58.090Z,54.76
2022-11-23T16:48:40.916Z,55.26
2022-11-23T16:51:11.499Z,55.20
2022-11-23T16:54:11.768Z,55.34
2022-11-23T16:56:31.037Z,55.99
2022-11-23T16:58:59.459Z,56.06
2022-11-23T17:01:30.010Z,58.94
2022-11-23T17:04:00.275Z,57.33
2022-11-23T17:06:28.544Z,56.80
2022-11-23T17:09:06.252Z,56.88
2022-11-23T17:11:39.235Z,57.12
2022-11-23T17:14:07.925Z,57.00
2022-11-23T17:16:36.905Z,58.82
2022-11-23T17:19:10.546Z,57.72
2022-11-23T17:21:38.945Z,57.05
2022-11-23T17:24:07.309Z,58.25
2022-11-23T17:26:38.023Z,58.72
2022-11-23T17:29:07.957Z,58.06
2022-11-23T17:31:35.960Z,58.15
2022-11-23T17:34:04.334Z,60.79
2022-11-23T17:36:34.079Z,59.26
2022-11-23T17:39:03.815Z,58.11
2022-11-23T17:41:32.205Z,57.58
2022-11-23T17:44:00.404Z,57.46
2022-11-23T17:46:31.692Z,57.60
2022-11-23T17:49:02.628Z,57.70
2022-11-23T17:51:32.095Z,57.34
2022-11-23T17:54:04.467Z,57.55
2022-11-23T17:56:32.612Z,57.65
2022-11-23T17:59:01.009Z,57.53
2022-11-23T18:01:30.093Z,57.57
2022-11-23T18:04:01.408Z,57.72
2022-11-23T18:06:30.399Z,57.99
2022-11-23T18:08:58.836Z,58.09
2022-11-23T18:11:29.324Z,57.89
2022-11-23T18:13:59.857Z,58.65
2022-11-23T18:16:28.904Z,58.56
2022-11-23T18:18:57.259Z,57.71
2022-11-23T18:21:26.060Z,57.88
2022-11-23T18:23:54.487Z,58.00
2022-11-23T18:26:25.830Z,58.31
2022-11-23T18:28:57.898Z,57.98
2022-11-23T18:31:26.516Z,59.67
2022-11-23T18:33:55.233Z,60.05
2022-11-23T18:36:24.869Z,60.45
2022-11-23T18:38:54.110Z,61.12
2022-11-23T18:41:22.914Z,60.30
2022-11-23T18:43:51.435Z,60.93
2022-11-23T18:46:21.526Z,60.78
2022-11-23T18:48:51.884Z,60.94
2022-11-23T18:51:20.576Z,62.34
2022-11-23T18:53:50.308Z,61.95
2022-11-23T18:56:19.489Z,62.79
2022-11-23T18:58:49.530Z,61.94
2022-11-23T19:01:19.487Z,62.63
2022-11-23T19:03:51.597Z,62.36
2022-11-23T19:06:22.461Z,63.20
2022-11-23T19:08:53.877Z,62.65
2022-11-23T19:11:24.650Z,63.22
2022-11-23T19:13:54.744Z,63.15
2022-11-23T19:16:25.076Z,62.75
2022-11-23T19:19:00.810Z,62.59
2022-11-23T19:21:31.343Z,63.41
2022-11-23T19:24:00.832Z,64.52
2022-11-23T19:26:30.719Z,64.20
2022-11-23T19:28:59.633Z,63.97
2022-11-23T19:31:30.116Z,65.16
2022-11-23T19:34:02.161Z,63.89
2022-11-23T19:36:33.429Z,65.24
2022-11-23T19:39:03.016Z,64.90
2022-11-23T19:41:31.807Z,66.12
2022-11-23T19:44:01.223Z,65.16
2022-11-23T19:46:30.906Z,64.92
2022-11-23T19:49:00.668Z,66.53
2022-11-23T19:51:29.516Z,66.52
2022-11-23T19:54:00.247Z,66.33
2022-11-23T19:56:30.181Z,66.46
2022-11-23T19:59:00.843Z,66.17
2022-11-23T20:01:32.083Z,65.69
2022-11-23T20:04:08.862Z,65.81
2022-11-23T20:06:38.853Z,65.51
2022-11-23T20:09:08.926Z,65.81
2022-11-23T20:11:46.835Z,66.60
2022-11-23T20:14:17.745Z,66.41
2022-11-23T20:16:45.760Z,66.73
2022-11-23T20:19:15.565Z,66.71
2022-11-23T20:21:44.316Z,66.64
2022-11-23T20:24:15.125Z,67.21
2022-11-23T20:26:44.919Z,67.16
2022-11-23T20:31:55.941Z,66.50
2022-11-23T20:34:26.385Z,67.19
2022-11-23T20:36:54.892Z,67.76
2022-11-23T20:39:22.772Z,67.36
2022-11-23T20:41:50.616Z,67.71
2022-11-23T20:44:32.346Z,68.24
2022-11-23T20:47:02.959Z,68.21
2022-11-23T20:49:33.449Z,68.93
2022-11-23T20:52:03.267Z,69.05
2022-11-23T20:54:36.998Z,69.50
2022-11-23T20:57:04.981Z,69.89
2022-11-23T20:59:32.972Z,70.13
2022-11-23T21:02:01.868Z,71.10
2022-11-23T21:04:29.970Z,71.41
2022-11-23T21:07:02.529Z,71.45
2022-11-23T21:12:50.650Z,71.28
2022-11-23T21:17:53.604Z,71.69
2022-11-23T21:20:21.664Z,72.11
2022-11-23T21:22:50.834Z,72.27
2022-11-23T21:25:18.611Z,72.45
2022-11-23T21:27:46.717Z,72.53
2022-11-23T21:30:17.297Z,72.91
2022-11-23T21:32:44.855Z,72.81
2022-11-23T21:35:12.385Z,72.80
2022-11-23T21:37:40.392Z,73.12
2022-11-23T21:40:12.104Z,73.53
2022-11-23T21:42:40.182Z,73.40
2022-11-23T21:45:09.700Z,73.76
2022-11-23T21:47:37.711Z,73.64
2022-11-23T21:50:06.465Z,73.63
2022-11-23T21:52:34.625Z,73.73
2022-11-23T21:55:02.704Z,73.89
2022-11-23T21:57:33.572Z,74.24
2022-11-23T22:00:01.469Z,73.90
2022-11-23T22:02:29.567Z,74.37
2022-11-23T22:04:57.590Z,74.54
2022-11-23T22:07:25.438Z,74.41
2022-11-23T22:09:53.021Z,74.64
2022-11-23T22:12:21.158Z,74.61
2022-11-23T22:14:50.015Z,74.89
2022-11-23T22:17:17.515Z,74.43
2022-11-23T22:19:45.047Z,74.58
2022-11-23T22:22:12.560Z,74.74
2022-11-23T22:24:40.070Z,74.56
2022-11-23T22:27:07.555Z,74.39
2022-11-23T22:29:35.111Z,74.41
2022-11-23T22:32:04.092Z,74.63
2022-11-23T22:34:33.494Z,74.61
2022-11-23T22:37:04.526Z,74.60
2022-11-23T22:39:35.008Z,74.22
2022-11-23T22:42:02.723Z,74.30
2022-11-23T22:44:30.437Z,74.08
2022-11-23T22:46:58.207Z,74.77
2022-11-23T22:49:27.207Z,74.86
2022-11-23T22:51:54.711Z,74.80
2022-11-23T22:54:22.248Z,74.76
2022-11-23T22:56:49.754Z,74.84
2022-11-23T22:59:17.288Z,74.65
2022-11-23T23:01:44.793Z,74.52
2022-11-23T23:04:12.372Z,74.69
2022-11-23T23:06:41.250Z,74.60
2022-11-23T23:09:09.235Z,74.68
2022-11-23T23:11:37.376Z,74.39
2022-11-23T23:14:04.975Z,74.64
2022-11-23T23:16:33.020Z,74.70
2022-11-23T23:19:00.945Z,74.67
2022-11-23T23:21:29.498Z,74.63
2022-11-23T23:24:00.236Z,74.58
2022-11-23T23:26:28.474Z,74.54
2022-11-23T23:28:57.140Z,74.51
2022-11-23T23:31:25.660Z,74.70
2022-11-23T23:33:54.486Z,74.78
2022-11-23T23:36:23.433Z,74.85
2022-11-23T23:38:51.273Z,74.74
2022-11-23T23:41:20.321Z,74.87
2022-11-23T23:43:48.792Z,74.82
2022-11-23T23:46:16.755Z,74.76
2022-11-23T23:48:44.613Z,74.51
2022-11-23T23:51:14.074Z,74.75
2022-11-23T23:53:41.909Z,75.07
2022-11-23T23:56:14.378Z,75.03
2022-11-23T23:58:43.587Z,74.89
